Latest Weather Observations for Canterbury

IDN60901

Issued at 10:01 pm EST Wednesday 12 August 2020 (issued every 10 minutes, with the page automatically refreshed every 10 minutes)

About weather observations | Map of Sydney area stations | Latest observations for Sydney area | Other Formats
Station Details ID: 066194 Name: CANTERBURY RACECOURSE AWS Lat: -33.91 Lon: 151.11 Height: 3.0 m
Data from the previous 72 hours. | See also: Recent months at Canterbury
Date/Time
EST
Temp
°C
App
Temp
°C
Dew
Point
°C
Rel
Hum
%
Delta-T
°C
Wind Press
QNH
hPa
Press
MSL
hPa
Rain since
9am
mm
Dir  Spd
km/h
Gust
km/h
Spd
kts
Gust
kts
12/10:00pm 10.9 11.0 10.1 95 0.4 CALM 0 0 0 0 - - 0.0
12/09:30pm 11.0 10.9 9.4 90 0.8 CALM 0 0 0 0 - - 0.0
12/09:00pm 12.8 13.1 11.0 89 0.9 CALM 0 7 0 4 - - 0.0
12/08:30pm 13.3 13.9 11.9 91 0.7 CALM 0 0 0 0 - - 0.0
12/08:00pm 12.1 11.4 11.5 96 0.3 N 6 11 3 6 - - 0.0
12/07:30pm 11.8 12.1 10.9 94 0.5 CALM 0 0 0 0 - - 0.0
12/07:00pm 12.1 12.2 10.2 88 1.0 CALM 0 0 0 0 - - 0.0
12/06:30pm 12.4 12.5 10.0 85 1.2 CALM 0 0 0 0 - - 0.0
12/06:00pm 13.4 13.5 10.2 81 1.7 CALM 0 0 0 0 - - 0.0
12/05:30pm 15.0 15.2 10.4 74 2.4 CALM 0 0 0 0 - - 0.0
12/05:00pm 16.6 16.2 9.8 64 3.6 N 2 7 1 4 - - 0.0
12/04:30pm 17.0 15.7 9.2 60 4.0 N 6 7 3 4 - - 0.0
12/04:00pm 17.3 15.9 9.0 58 4.3 N 6 9 3 5 - - 0.0
12/03:30pm 17.5 15.7 9.4 59 4.2 N 9 11 5 6 - - 0.0
12/03:00pm 17.6 16.2 9.0 57 4.5 NNW 6 9 3 5 - - 0.0
12/02:30pm 17.7 15.8 9.1 57 4.5 NW 9 13 5 7 - - 0.0
12/02:00pm 17.5 15.1 8.6 56 4.6 NNW 11 19 6 10 - - 0.0
12/01:30pm 17.8 15.7 8.1 53 5.0 NNW 9 15 5 8 - - 0.0
12/01:00pm 17.5 15.0 8.4 55 4.7 NW 11 17 6 9 - - 0.0
12/12:30pm 18.1 16.7 8.7 54 4.9 NW 6 19 3 10 - - 0.0
12/12:00pm 17.0 15.7 10.1 64 3.6 NNW 7 13 4 7 - - 0.0
12/11:30am 16.3 14.8 10.6 69 3.0 NW 9 15 5 8 - - 0.0
12/11:00am 15.6 14.3 9.9 69 3.0 NW 7 11 4 6 - - 0.0
12/10:30am 15.0 13.3 9.8 71 2.7 N 9 13 5 7 - - 0.0
12/10:00am 14.5 13.3 10.3 76 2.2 NNE 7 11 4 6 - - 0.0
12/09:30am 12.9 13.1 10.4 85 1.3 CALM 0 7 0 4 - - 0.0
12/09:00am 11.5 11.9 11.2 98 0.2 CALM 0 0 0 0 - - 0.0
12/08:30am 10.4 10.5 10.2 99 0.1 CALM 0 0 0 0 - - 0.0
12/08:00am 9.3 9.1 9.2 99 0.0 CALM 0 4 0 2 - - 0.0
12/07:30am 8.2 7.8 8.1 99 0.0 CALM 0 0 0 0 - - 0.0
12/07:00am 7.7 7.1 7.6 99 0.0 CALM 0 0 0 0 - - 0.0
12/06:30am 7.8 7.3 7.7 99 0.0 CALM 0 0 0 0 - - 0.0
12/06:00am 7.9 7.4 7.8 99 0.0 CALM 0 0 0 0 - - 0.0
12/05:30am 8.4 8.0 8.3 99 0.0 CALM 0 0 0 0 - - 0.0
12/05:00am 8.7 8.4 8.6 99 0.0 CALM 0 0 0 0 - - 0.0
12/04:30am 8.7 8.4 8.6 99 0.0 CALM 0 0 0 0 - - 0.0
12/04:00am 8.9 8.6 8.8 99 0.0 CALM 0 0 0 0 - - 0.0
12/03:30am 8.3 7.9 8.2 99 0.0 CALM 0 0 0 0 - - 0.0
12/03:00am 8.7 8.4 8.6 99 0.0 CALM 0 0 0 0 - - 0.0
12/02:30am 8.8 8.5 8.7 99 0.0 CALM 0 0 0 0 - - 0.0
12/02:00am 8.3 7.9 8.2 99 0.0 CALM 0 0 0 0 - - 0.0
12/01:30am 8.4 8.0 8.3 99 0.0 CALM 0 0 0 0 - - 0.0
12/01:00am 8.9 8.6 8.8 99 0.0 CALM 0 0 0 0 - - 0.0
12/12:30am 9.1 8.1 9.0 99 0.0 ENE 4 6 2 3 - - 0.0
12/12:00am 9.0 7.6 8.9 99 0.0 ENE 6 9 3 5 - - 0.0
 
Date/Time
EST
Temp
°C
App
Temp
°C
Dew
Point
°C
Rel
Hum
%
Delta-T
°C
Wind Press
QNH
hPa
Press
MSL
hPa
Rain since
9am
mm
Dir  Spd
km/h
Gust
km/h
Spd
kts
Gust
kts
11/11:30pm 8.7 8.4 8.6 99 0.0 CALM 0 0 0 0 - - 0.0
11/11:00pm 8.6 8.3 8.5 99 0.0 CALM 0 0 0 0 - - 0.0
11/10:30pm 9.0 8.8 8.9 99 0.0 CALM 0 0 0 0 - - 0.0
11/10:00pm 8.8 8.4 8.4 97 0.2 CALM 0 0 0 0 - - 0.0
11/09:30pm 8.9 8.5 8.1 95 0.4 CALM 0 0 0 0 - - 0.0
11/09:00pm 8.6 8.0 7.4 92 0.6 CALM 0 0 0 0 - - 0.0
11/08:30pm 9.6 8.1 8.4 92 0.6 ENE 6 7 3 4 - - 0.0
11/08:00pm 9.6 8.7 7.9 89 0.8 ENE 2 6 1 3 - - 0.0
11/07:30pm 10.8 9.2 8.9 88 0.9 ENE 7 9 4 5 - - 0.0
11/07:00pm 10.4 10.0 8.2 86 1.1 CALM 0 0 0 0 - - 0.0
11/06:30pm 11.7 11.3 8.2 79 1.7 CALM 0 6 0 3 - - 0.0
11/06:00pm 13.1 11.4 8.4 73 2.3 ENE 7 13 4 7 - - 0.0
11/05:30pm 13.6 11.4 8.0 69 2.8 ENE 9 13 5 7 - - 0.0
11/05:00pm 14.5 12.0 8.2 66 3.2 E 11 15 6 8 - - 0.0
11/04:30pm 16.1 14.2 6.5 53 4.7 N 6 11 3 6 - - 0.0
11/04:00pm 16.9 14.9 6.4 50 5.1 N 6 13 3 7 - - 0.0
11/03:30pm 16.4 14.2 6.0 50 5.0 NE 7 13 4 7 - - 0.0
11/03:00pm 16.8 14.1 5.4 47 5.5 NW 9 15 5 8 - - 0.0
11/02:30pm 17.5 14.3 7.0 50 5.2 NNE 13 20 7 11 - - 0.0
11/02:00pm 17.3 13.9 5.9 47 5.5 NNW 13 20 7 11 - - 0.0
11/01:30pm 16.9 14.5 5.2 46 5.6 NW 7 17 4 9 - - 0.0
11/01:00pm 17.2 14.8 7.0 51 5.1 NW 9 13 5 7 - - 0.0
11/12:30pm 15.7 12.7 6.2 53 4.6 W 11 17 6 9 - - 0.0
11/12:00pm 16.0 13.3 7.2 56 4.4 W 11 15 6 8 - - 0.0
11/11:30am 15.8 14.0 8.1 60 3.9 W 7 11 4 6 - - 0.0
11/11:00am 15.3 12.7 7.8 61 3.7 WNW 11 15 6 8 - - 0.0
11/10:30am 14.2 11.8 8.6 69 2.8 WSW 11 13 6 7 - - 0.0
11/10:00am 13.7 11.8 9.0 73 2.4 WSW 9 15 5 8 - - 0.0
11/09:30am 12.6 10.6 8.5 76 2.0 WSW 9 13 5 7 - - 0.0
11/09:00am 12.2 10.2 8.7 79 1.7 W 9 13 5 7 - - 6.2
11/08:30am 11.7 9.7 8.6 81 1.5 WSW 9 15 5 8 - - 6.2
11/08:00am 11.1 9.4 8.3 83 1.4 WNW 7 11 4 6 - - 6.2
11/07:30am 10.8 9.6 8.2 84 1.3 W 4 9 2 5 - - 6.2
11/07:00am 10.6 9.0 8.2 85 1.2 W 6 11 3 6 - - 6.2
11/06:30am 10.7 9.1 7.9 83 1.4 WSW 6 11 3 6 - - 6.2
11/06:00am 10.8 8.6 8.0 83 1.4 SW 9 19 5 10 - - 6.2
11/05:30am 10.8 8.6 8.0 83 1.4 SW 9 15 5 8 - - 6.2
11/05:00am 10.8 8.3 8.0 83 1.4 WSW 11 20 6 11 - - 6.2
11/04:30am 10.9 8.4 8.1 83 1.4 WSW 11 20 6 11 - - 6.2
11/04:00am 10.8 8.3 8.2 84 1.3 WSW 11 15 6 8 - - 6.2
11/03:30am 10.9 8.1 8.5 85 1.2 WSW 13 20 7 11 - - 6.2
11/03:00am 10.9 8.5 8.7 86 1.1 WSW 11 15 6 8 - - 6.2
11/02:30am 10.9 8.5 8.7 86 1.1 SW 11 19 6 10 - - 6.2
11/02:00am 10.7 8.7 8.6 87 1.0 SW 9 15 5 8 - - 6.2
11/01:30am 10.8 8.9 8.9 88 0.9 SW 9 13 5 7 - - 6.2
11/01:00am 10.9 9.0 9.0 88 0.9 SW 9 13 5 7 - - 6.2
11/12:30am 10.8 8.9 8.9 88 0.9 SW 9 15 5 8 - - 6.2
11/12:00am 10.6 8.7 8.9 89 0.8 SW 9 13 5 7 - - 6.2
 
Date/Time
EST
Temp
°C
App
Temp
°C
Dew
Point
°C
Rel
Hum
%
Delta-T
°C
Wind Press
QNH
hPa
Press
MSL
hPa
Rain since
9am
mm
Dir  Spd
km/h
Gust
km/h
Spd
kts
Gust
kts
10/11:30pm 10.6 8.7 8.9 89 0.8 SW 9 15 5 8 - - 6.2
10/11:00pm 10.7 8.8 9.0 89 0.8 WSW 9 13 5 7 - - 6.2
10/10:30pm 10.8 8.5 8.9 88 0.9 SW 11 19 6 10 - - 6.2
10/10:00pm 10.9 7.8 9.0 88 0.9 SW 15 22 8 12 - - 6.2
10/09:30pm 10.7 8.0 9.0 89 0.8 WSW 13 20 7 11 - - 6.2
10/09:00pm 11.0 8.0 9.3 89 0.8 SW 15 20 8 11 - - 6.2
10/08:30pm 11.0 8.9 9.6 91 0.7 SW 11 19 6 10 - - 6.2
10/08:00pm 10.9 9.2 9.7 92 0.6 SW 9 15 5 8 - - 6.2
10/07:30pm 11.1 9.0 9.7 91 0.7 SW 11 19 6 10 - - 6.2
10/07:00pm 11.3 9.2 9.7 90 0.8 SW 11 19 6 10 - - 6.2
10/06:30pm 11.6 8.9 10.2 91 0.7 SSW 15 26 8 14 - - 6.2
10/06:16pm 11.8 9.1 10.4 91 0.7 SSW 15 22 8 12 - - 6.0
10/06:00pm 11.9 9.6 10.3 90 0.8 SSW 13 22 7 12 - - 5.8
10/05:59pm 11.9 9.6 10.3 90 0.8 SSW 13 22 7 12 - - 5.8
10/05:41pm 12.0 8.7 9.7 86 1.2 SSW 17 26 9 14 - - 5.4
10/05:30pm 12.1 7.7 9.1 82 1.5 S 22 37 12 20 - - 5.4
10/05:29pm 12.1 7.7 9.1 82 1.5 S 22 37 12 20 - - 5.4
10/05:00pm 12.4 8.7 9.6 83 1.4 S 19 33 10 18 - - 5.2
10/04:30pm 12.8 9.2 9.8 82 1.5 SSW 19 32 10 17 - - 5.2
10/04:00pm 13.2 10.3 9.6 79 1.8 SSW 15 24 8 13 - - 5.2
10/03:31pm 14.7 8.3 7.0 60 3.8 SSE 30 48 16 26 - - 5.2
10/03:30pm 14.8 8.9 7.4 61 3.6 SSE 28 46 15 25 - - 5.2
10/03:00pm 14.9 8.9 7.2 60 3.8 S 28 46 15 25 - - 5.2
10/02:31pm 15.1 9.0 6.4 56 4.2 S 28 46 15 25 - - 5.2
10/02:30pm 15.1 9.4 6.7 57 4.1 S 26 46 14 25 - - 5.2
10/02:00pm 14.9 9.8 7.5 61 3.7 S 24 41 13 22 - - 5.2
10/01:48pm 14.8 8.8 6.9 59 3.9 SSE 28 44 15 24 - - 5.2
10/01:30pm 14.8 11.5 9.4 70 2.8 S 17 26 9 14 - - 5.2
10/01:01pm 13.5 8.0 9.2 75 2.2 SSE 28 56 15 30 - - 5.0
10/01:00pm 14.2 9.2 9.6 74 2.4 SSE 26 52 14 28 - - 5.0
10/12:38pm 14.9 9.3 8.6 66 3.2 S 28 56 15 30 - - 4.8
10/12:30pm 14.4 9.3 9.2 71 2.7 S 26 44 14 24 - - 4.8
10/12:26pm 14.2 8.9 10.0 76 2.2 S 28 54 15 29 - - 4.8
10/12:25pm 14.0 9.1 10.0 77 2.1 S 26 54 14 29 - - 4.8
10/12:03pm 12.3 7.1 10.4 88 1.0 SSE 28 50 15 27 - - 3.4
10/12:00pm 12.5 7.7 10.4 87 1.1 SSE 26 41 14 22 - - 2.2
10/11:54am 13.2 7.4 9.6 79 1.8 SSE 30 56 16 30 - - 1.0
10/11:45am 14.6 9.1 9.2 70 2.8 S 28 46 15 25 - - 0.4
10/11:30am 14.1 9.7 10.3 78 2.0 S 24 41 13 22 - - 0.4
10/11:00am 13.6 8.0 10.2 80 1.8 S 30 61 16 33 - - 0.4
10/10:53am 13.8 8.4 9.6 76 2.2 S 28 61 15 33 - - 0.4
10/10:30am 15.5 10.3 9.0 65 3.3 S 26 43 14 23 - - 0.0
10/10:09am 15.4 9.2 7.9 61 3.8 S 30 57 16 31 - - 0.0
10/10:00am 15.4 9.3 8.2 62 3.6 SSE 30 44 16 24 - - 0.0
10/09:44am 15.5 9.2 5.7 52 4.7 SSE 28 50 15 27 - - 0.0
10/09:30am 15.7 9.6 6.4 54 4.5 SSE 28 39 15 21 - - 0.0
10/09:00am 15.3 9.5 7.8 61 3.7 SSE 28 50 15 27 - - 34.0
10/08:30am 14.8 8.7 8.1 64 3.4 SSE 30 48 16 26 - - 34.0
10/08:06am 14.4 8.9 9.2 71 2.7 SSE 28 48 15 26 - - 34.0
10/08:00am 14.6 9.4 9.0 69 2.8 SSE 26 48 14 26 - - 34.0
10/07:30am 14.0 8.2 9.6 75 2.3 SSE 30 54 16 29 - - 34.0
10/07:00am 14.0 8.7 9.8 76 2.2 SSE 28 50 15 27 - - 33.8
10/06:45am 14.0 8.7 10.0 77 2.1 SSE 28 61 15 33 - - 33.8
10/06:30am 13.5 9.2 10.7 83 1.5 SSE 24 43 13 23 - - 33.8
10/06:06am 13.3 8.1 11.5 89 1.0 SSE 30 52 16 28 - - 33.8
10/06:00am 13.3 8.5 11.7 90 0.9 SSE 28 44 15 24 - - 33.8
10/05:34am 13.2 8.6 12.3 94 0.5 SSE 28 54 15 29 - - 33.8
10/05:33am 13.2 9.0 12.3 94 0.5 SSE 26 44 14 24 - - 33.8
10/05:30am 13.2 8.6 12.4 95 0.4 SSE 28 43 15 23 - - 33.8
10/05:11am 14.0 9.7 11.9 87 1.1 SSE 26 43 14 23 - - 32.6
10/05:03am 14.2 9.3 11.4 83 1.5 SSE 28 46 15 25 - - 31.2
10/05:00am 14.2 8.9 11.2 82 1.6 SSE 30 46 16 25 - - 31.2
10/04:30am 14.2 7.9 11.2 82 1.6 SSE 35 57 19 31 - - 31.2
10/04:00am 14.5 7.8 11.1 80 1.8 SE 37 63 20 34 - - 31.2
10/03:30am 13.9 8.4 11.8 87 1.1 SSE 32 50 17 27 - - 31.2
10/03:03am 13.6 8.1 11.8 89 1.0 SSE 32 56 17 30 - - 31.2
10/03:00am 13.5 8.0 11.9 90 0.9 SSE 32 54 17 29 - - 31.2
10/02:49am 13.4 7.3 11.8 90 0.9 SSE 35 59 19 32 - - 31.2
10/02:46am 13.4 7.6 11.6 89 1.0 SSE 33 50 18 27 - - 31.2
10/02:41am 13.6 8.3 11.3 86 1.2 SSE 30 48 16 26 - - 30.4
10/02:30am 13.5 8.6 11.4 87 1.1 SSE 28 43 15 23 - - 30.4
10/02:17am 13.1 8.3 11.5 90 0.8 SSE 28 43 15 23 - - 30.4
10/02:00am 13.0 7.7 11.4 90 0.8 SSE 30 48 16 26 - - 30.4
10/01:57am 13.3 8.4 11.2 87 1.1 SSE 28 48 15 26 - - 30.0
10/01:30am 13.4 9.1 10.8 84 1.4 SSE 24 46 13 25 - - 28.8
10/01:00am 14.4 9.5 9.8 74 2.4 SSE 26 44 14 24 - - 28.6
10/12:30am 14.1 10.0 10.1 77 2.1 SSE 22 41 12 22 - - 28.6
10/12:00am 13.9 10.0 10.7 81 1.7 SSE 22 37 12 20 - - 28.6
 
Date/Time
EST
Temp
°C
App
Temp
°C
Dew
Point
°C
Rel
Hum
%
Delta-T
°C
Wind Press
QNH
hPa
Press
MSL
hPa
Rain since
9am
mm
Dir  Spd
km/h
Gust
km/h
Spd
kts
Gust
kts
09/11:30pm 13.8 10.3 11.0 83 1.5 SSE 20 33 11 18 - - 28.6
09/11:00pm 13.8 10.7 10.4 80 1.8 SSE 17 28 9 15 - - 28.6
09/10:30pm 13.7 9.8 9.4 75 2.2 SE 20 32 11 17 - - 28.6

Latest Capital City Observations: Canberra | Sydney | Melbourne | Brisbane | Adelaide | Perth | Hobart | Darwin

Other formats

Comma delimited format used in spreadsheet applications
http://www.bom.gov.au/fwo/IDN60901/IDN60901.94766.axf

JavaScript Object Notation format (JSON) in row-major order
http://www.bom.gov.au/fwo/IDN60901/IDN60901.94766.json

Data quality

Most of these data are generated automatically and are frequently updated. Quality checks on data are not normally performed. It is possible for incorrect values to appear. Refer to information at About Latest Weather Observations and please check the disclaimer before using these data.